Aviation Digital Data Service (ADDS)

Output produced by METARs form (1006 UTC 19 January 2019)
found at http://www.aviationweather.gov/metar/data/
 
FABM 190747Z 16004G24KT 9999 FEW020 26/13 Q1022
FABL 190900Z 17014KT 120V200 CAVOK 26/02 Q1020 NOSIG
TAF FABL 191000Z 1912/2012 16010KT CAVOK TX31/1913Z TN14/2003Z
       
FACV 190846Z 25002KT CAVOK 17/03 Q1024
FACT 191000Z VRB08KT 9999 FEW040 21/07 Q1025 NOSIG
TAF FACT 190400Z 1906/2012 19008KT 9999 FEW035 TX27/2012Z TN13/1906Z 
     BECMG 1910/1912 17018KT 
     BECMG 2002/2004 VRB03KT 
     BECMG 2010/2012 19013KT
       
FAEL 191000Z 21024KT CAVOK 22/10 Q1020
TAF FAEL 190900Z 1910/1919 24019G29KT CAVOK TX24/1912Z TN19/1919Z 
     BECMG 1915/1917 22015KT
       
FAGG 191000Z 23013KT 9999 SCT048 19/07 Q1023
TAF FAGG 190400Z 1906/2006 28016KT 9999 SCT040 TX22/1912Z TN12/2004Z 
     BECMG 1908/1910 22014KT 
     BECMG 1916/1918 15007KT 
     FM200300 04008KT CAVOK
       
FAHS 191000Z AUTO 16011KT //// // ////// 27/20 Q1012
TAF FAHS 190900Z 1910/1918 16012KT 9999 BKN020 TX29/1913Z TN23/1918Z 
     PROB30 
     TEMPO 1912/1916 FEW035TCU 
     BECMG 1915/1917 BKN020
       
FAKM 191000Z 15011KT CAVOK 28/M03 Q1020
TAF FAKM 190900Z 1910/1918 22010KT CAVOK TX32/1912Z TN23/1918Z
       
FALW 190900Z AUTO 21007KT //// // ////// 21/04 Q1023
FALA 191000Z 19011KT CAVOK 30/06 Q1018 NOSIG
TAF FALA 190400Z 1906/2006 22009KT CAVOK TX32/1913Z TN15/2003Z 
     BECMG 1919/1921 13010KT BKN014 
     PROB30 
     TEMPO 2002/2006 BKN008
       
FAMM 191000Z 15013KT CAVOK 32/02 Q1018 NOSIG
TAF FAMM 190600Z 1907/1918 16015KT CAVOK TX36/1913Z TN26/1918Z 
     BECMG 1914/1916 23010KT
       
FAOB 190900Z AUTO 27011KT //// // ////// 21/06 Q1023
TAF FAPM 190900Z 1910/1921 18008KT 9999 BKN015 OVC025 TX19/1912Z TN14/1921Z 
     PROB40 
     TEMPO 1910/1918 4000 RA BKN008 
     BECMG 1914/1916 16010KT 
     PROB40 
     TEMPO 1918/1921 3000 BR BKN005
       
FAPE 191000Z 25025KT 9999 FEW036 SCT041 22/10 Q1021 NOSIG
TAF FAPE 190400Z 1906/2006 25022KT 9999 FEW045 TX23/1912Z TN14/2004Z 
     TEMPO 1906/1912 25023G33KT 
     BECMG 1916/1918 22010KT 
     BECMG 2000/2002 31005KT
       
TAF FARB 190900Z 1910/1918 22020G30KT 9999 BKN008 OVC020 TX22/1910Z TN20/1918Z 
     TEMPO 1910/1918 4000 RA BKN005
       
FASB 190943Z 13011KT CAVOK 22/M07 Q1023
FAUT 191000Z 15008KT 9999 SCT025 23/13 Q1019
TAF FAUT 190900Z 1910/1918 13005KT 9999 BKN020 TX23/1912Z TN14/1918Z
       
FAUP 191000Z 17005KT CAVOK 28/M03 Q1020 NOSIG
TAF FAUP 191000Z 1912/2012 20010KT CAVOK TX32/1914Z TN20/2003Z
       
FAVV 190500Z AUTO 25004KT //// // ////// 21/08 Q1018
TAF FAWK 190300Z 1904/1915 21010KT CAVOK TX34/1913Z TN22/1904Z
       
FAWB 190900Z AUTO 22010KT //// // ////// 30/08 Q1016
TAF FAWB 190600Z 1907/1918 20010KT CAVOK TX35/1913Z TN28/1918Z 
     PROB30 
     TEMPO 1916/1918 FEW040TCU